Pine Neck, New York
Current Conditions -  °F | °C
As of 7:53 AM on Friday 28 Nov 2014 (Local Time) from KFOK Reporting Station
Few Clouds Few Clouds  
Wind Chill: 25°   Ceiling: Unl
Heat Index: 34°   Visibility: 10mi
Dew Point: 23°   Wind: 14mph
Humidity: 64%   Direction: 310°NW
Pressure: 30.12"   Gusts: 18mph
Location:  40.9692°N, 72.306°W
Report Text: KFOK 281253Z 31012G16KT 10SM FEW033 01/M05 A3012 RMK AO2 SLP200 T00111050
Loading
Personal Weather Stations






























Interactive Weather Map New forecast layout! Learn more

10-Day Weather Forecast

Advertisements
Track Severe Weather on mobile